Time;durP1;ratioP1;P1;durP2;ratioP2;P2;SDS_P1;SDS_P2;PMS_P1;PMS_P2;Temp;Humidity;BMP_temperature;BMP_pressure;BME280_temperature;BME280_humidity;BME280_pressure;Samples;Min_cycle;Max_cycle;Signal;HPM_P1;HPM_P2
2023/04/27 00:00:38;;;;;;;11.50;7.63;;;10.70;65.40;;;;;;5073465;28;20448;-56
2023/04/27 00:03:05;;;;;;;7.97;7.17;;;10.70;65.70;;;;;;5073345;28;20953;-57
2023/04/27 00:05:34;;;;;;;9.60;7.57;;;10.70;66.10;;;;;;5073576;28;20958;-56
2023/04/27 00:08:02;;;;;;;9.13;7.20;;;10.70;66.40;;;;;;5073365;28;20484;-56
2023/04/27 00:10:29;;;;;;;8.23;7.17;;;10.60;66.50;;;;;;5073662;28;20451;-56
2023/04/27 00:12:56;;;;;;;9.63;7.60;;;10.60;66.80;;;;;;5073420;28;20954;-57
2023/04/27 00:15:23;;;;;;;9.70;7.73;;;10.50;67.10;;;;;;5073649;28;20863;-56
2023/04/27 00:17:50;;;;;;;9.20;7.10;;;10.50;67.50;;;;;;5073330;28;20847;-56
2023/04/27 00:20:17;;;;;;;8.53;6.63;;;10.50;67.50;;;;;;5073368;28;20942;-56
2023/04/27 00:22:45;;;;;;;8.90;6.77;;;10.50;67.70;;;;;;5074058;28;20448;-56
2023/04/27 00:25:13;;;;;;;7.40;6.37;;;10.50;67.50;;;;;;5073427;28;20468;-57
2023/04/27 00:27:40;;;;;;;10.03;6.83;;;10.50;67.40;;;;;;5073411;28;20481;-56
2023/04/27 00:30:07;;;;;;;9.87;7.10;;;10.40;67.50;;;;;;5073447;28;20456;-57
2023/04/27 00:32:34;;;;;;;8.23;7.43;;;10.40;67.70;;;;;;5073088;28;20985;-57
2023/04/27 00:35:01;;;;;;;10.80;7.37;;;10.40;68.20;;;;;;5073169;28;20475;-57
2023/04/27 00:37:27;;;;;;;10.93;7.10;;;10.40;68.60;;;;;;5068175;28;20441;-57
2023/04/27 00:39:54;;;;;;;10.83;7.33;;;10.40;69.00;;;;;;5053269;28;20458;-56
2023/04/27 00:42:23;;;;;;;11.13;7.73;;;10.40;69.10;;;;;;5053174;28;20495;-56
2023/04/27 00:44:50;;;;;;;10.50;7.57;;;10.40;69.30;;;;;;5053116;28;20501;-56
2023/04/27 00:47:17;;;;;;;9.20;6.87;;;10.40;69.50;;;;;;5053057;28;20485;-56
2023/04/27 00:49:44;;;;;;;7.90;7.03;;;10.30;69.70;;;;;;5053098;28;20477;-56
2023/04/27 00:52:11;;;;;;;12.00;7.90;;;10.30;70.10;;;;;;5053038;28;20449;-56
2023/04/27 00:54:38;;;;;;;8.40;6.97;;;10.30;70.40;;;;;;5053031;28;20465;-57
2023/04/27 00:57:05;;;;;;;8.67;7.70;;;10.30;70.50;;;;;;5053078;28;20449;-57
2023/04/27 00:59:33;;;;;;;11.43;8.07;;;10.20;70.80;;;;;;5056407;28;20553;-56
2023/04/27 01:02:00;;;;;;;9.13;6.90;;;10.20;71.10;;;;;;5058616;28;20449;-56
2023/04/27 01:04:27;;;;;;;8.10;7.30;;;10.20;71.20;;;;;;5057970;28;20560;-56
2023/04/27 01:06:54;;;;;;;10.47;8.10;;;10.10;71.30;;;;;;5057426;28;20524;-57
2023/04/27 01:09:20;;;;;;;10.00;8.30;;;10.20;71.30;;;;;;5056599;28;20461;-56
2023/04/27 01:11:47;;;;;;;11.90;8.53;;;10.10;71.30;;;;;;5057021;28;20532;-57
2023/04/27 01:14:14;;;;;;;8.57;7.67;;;10.00;71.20;;;;;;5057033;28;20877;-56
2023/04/27 01:16:43;;;;;;;11.33;8.50;;;10.00;71.50;;;;;;5056789;28;20445;-56
2023/04/27 01:19:09;;;;;;;10.20;8.37;;;10.00;72.40;;;;;;5056807;28;20450;-56
2023/04/27 01:21:36;;;;;;;8.43;7.30;;;9.90;73.70;;;;;;5056673;28;20449;-56
2023/04/27 01:24:06;;;;;;;9.57;8.27;;;9.90;73.80;;;;;;5056745;28;20470;-56
2023/04/27 01:26:33;;;;;;;13.53;9.37;;;9.80;73.70;;;;;;5056525;28;20452;-56
2023/04/27 01:28:59;;;;;;;11.47;8.40;;;9.80;74.00;;;;;;5056448;28;20485;-56
2023/04/27 01:31:26;;;;;;;9.30;7.63;;;9.70;74.00;;;;;;5056444;28;20449;-56
2023/04/27 01:33:53;;;;;;;12.03;8.33;;;9.70;74.20;;;;;;5056429;28;20566;-56
2023/04/27 01:36:19;;;;;;;10.00;8.13;;;9.70;74.70;;;;;;5056411;28;20479;-56
2023/04/27 01:38:46;;;;;;;8.40;7.50;;;9.70;74.60;;;;;;5056288;28;20448;-56
2023/04/27 01:41:14;;;;;;;9.27;8.30;;;9.60;74.40;;;;;;5056299;28;20550;-56
2023/04/27 01:43:42;;;;;;;9.07;8.10;;;9.60;74.20;;;;;;5055888;28;20975;-56
2023/04/27 01:46:10;;;;;;;9.80;8.83;;;9.60;74.40;;;;;;5055991;28;20963;-56
2023/04/27 01:48:38;;;;;;;10.27;8.93;;;9.50;74.50;;;;;;5055998;28;20480;-56
2023/04/27 01:51:05;;;;;;;11.10;8.07;;;9.40;74.50;;;;;;5055864;28;20603;-57
2023/04/27 01:53:31;;;;;;;8.90;8.00;;;9.40;74.60;;;;;;5056027;28;20492;-56
2023/04/27 01:55:58;;;;;;;10.43;8.47;;;9.40;75.00;;;;;;5056058;28;20456;-56
2023/04/27 01:58:27;;;;;;;9.43;7.87;;;9.30;75.20;;;;;;5055713;28;20481;-56
2023/04/27 02:00:53;;;;;;;11.20;8.63;;;9.30;75.60;;;;;;5055918;28;20856;-56
2023/04/27 02:03:20;;;;;;;9.00;7.87;;;9.20;75.60;;;;;;5055589;28;20469;-56
2023/04/27 02:05:47;;;;;;;10.03;7.87;;;9.20;75.70;;;;;;5055521;28;20908;-56
2023/04/27 02:08:13;;;;;;;9.80;7.87;;;9.20;75.80;;;;;;5055784;28;20536;-56
2023/04/27 02:10:40;;;;;;;10.27;7.90;;;9.10;75.60;;;;;;5054741;28;20453;-56
2023/04/27 02:13:08;;;;;;;8.80;6.73;;;9.10;75.60;;;;;;5055643;28;20848;-56
2023/04/27 02:15:36;;;;;;;10.80;7.53;;;9.00;75.60;;;;;;5055388;28;20639;-56
2023/04/27 02:18:03;;;;;;;10.30;8.57;;;9.00;75.80;;;;;;5055634;28;20446;-56
2023/04/27 02:20:30;;;;;;;8.60;7.70;;;9.00;75.80;;;;;;5055563;28;20457;-56
2023/04/27 02:22:57;;;;;;;11.57;7.30;;;8.90;75.70;;;;;;5055207;28;20791;-57
2023/04/27 02:25:24;;;;;;;11.07;8.47;;;8.90;76.00;;;;;;5055383;28;20445;-56
2023/04/27 02:27:50;;;;;;;10.70;8.00;;;8.90;76.00;;;;;;5054942;28;21010;-56
2023/04/27 02:30:17;;;;;;;10.63;8.20;;;8.80;76.10;;;;;;5055270;28;20515;-56
2023/04/27 02:32:46;;;;;;;9.30;7.50;;;8.80;76.30;;;;;;5055396;28;20445;-56
2023/04/27 02:35:12;;;;;;;9.33;7.20;;;8.80;76.40;;;;;;5055103;28;20503;-56
2023/04/27 02:37:39;;;;;;;10.73;7.63;;;8.80;76.60;;;;;;5054883;28;20980;-56
2023/04/27 02:40:08;;;;;;;7.73;6.90;;;8.70;76.70;;;;;;5055198;28;20457;-56
2023/04/27 02:42:37;;;;;;;10.50;7.13;;;8.70;76.80;;;;;;5055984;28;20544;-56
2023/04/27 02:45:04;;;;;;;12.07;8.70;;;8.70;76.90;;;;;;5055060;28;20555;-56
2023/04/27 02:47:31;;;;;;;9.40;8.20;;;8.70;77.00;;;;;;5055006;28;20488;-56
2023/04/27 02:49:59;;;;;;;9.83;8.10;;;8.70;77.50;;;;;;5054984;28;20453;-56
2023/04/27 02:52:26;;;;;;;9.90;8.00;;;8.70;77.50;;;;;;5054580;28;20955;-56
2023/04/27 02:54:53;;;;;;;8.97;7.43;;;8.60;77.30;;;;;;5054711;28;20473;-56
2023/04/27 02:57:19;;;;;;;12.67;7.90;;;8.60;77.50;;;;;;5054889;28;20453;-56
2023/04/27 02:59:46;;;;;;;10.63;8.30;;;8.60;77.30;;;;;;5054744;28;20445;-56
2023/04/27 03:02:13;;;;;;;7.83;7.03;;;8.50;77.10;;;;;;5054854;28;20450;-56
2023/04/27 03:04:39;;;;;;;9.63;7.50;;;8.50;77.10;;;;;;5054608;28;20473;-56
2023/04/27 03:07:07;;;;;;;8.43;6.90;;;8.50;77.20;;;;;;5054668;28;20504;-56
2023/04/27 03:09:34;;;;;;;10.00;8.27;;;8.40;77.50;;;;;;5054097;28;20998;-56
2023/04/27 03:12:01;;;;;;;11.37;8.23;;;8.40;78.10;;;;;;5054564;28;20551;-56
2023/04/27 03:14:28;;;;;;;10.83;8.67;;;8.40;78.10;;;;;;5054407;28;20477;-56
2023/04/27 03:16:56;;;;;;;11.23;8.10;;;8.40;78.20;;;;;;5054430;28;20445;-56
2023/04/27 03:19:22;;;;;;;12.23;8.50;;;8.40;78.40;;;;;;5054324;28;20454;-56
2023/04/27 03:21:49;;;;;;;8.77;7.73;;;8.30;78.30;;;;;;5054123;28;20457;-56
2023/04/27 03:24:17;;;;;;;10.50;8.03;;;8.30;78.10;;;;;;5054291;28;20469;-56
2023/04/27 03:26:44;;;;;;;9.27;7.37;;;8.20;77.70;;;;;;5053990;28;20935;-55
2023/04/27 03:29:10;;;;;;;9.33;7.80;;;8.20;77.80;;;;;;5054179;28;20481;-55
2023/04/27 03:31:37;;;;;;;9.07;7.30;;;8.10;77.70;;;;;;5054128;28;20464;-56
2023/04/27 03:34:04;;;;;;;11.93;7.70;;;8.10;78.00;;;;;;5054035;28;20476;-56
2023/04/27 03:36:31;;;;;;;8.70;7.53;;;8.00;77.90;;;;;;5054044;28;20503;-56
2023/04/27 03:38:58;;;;;;;10.77;7.90;;;8.00;78.10;;;;;;5053685;28;21023;-56
2023/04/27 03:41:26;;;;;;;10.63;8.80;;;7.90;78.00;;;;;;5053985;28;20454;-57
2023/04/27 03:43:53;;;;;;;11.73;7.90;;;7.90;78.10;;;;;;5053567;28;20477;-56
2023/04/27 03:46:20;;;;;;;8.43;7.53;;;7.80;78.20;;;;;;5053993;28;20449;-56
2023/04/27 03:48:47;;;;;;;9.80;7.57;;;7.80;78.30;;;;;;5053756;28;20484;-56
2023/04/27 03:51:13;;;;;;;8.50;7.27;;;7.80;78.70;;;;;;5053909;28;20449;-56
2023/04/27 03:53:40;;;;;;;9.00;6.50;;;7.70;78.70;;;;;;5053754;28;20476;-56
2023/04/27 03:56:07;;;;;;;9.80;8.00;;;7.70;78.60;;;;;;5054420;28;20442;-56
2023/04/27 03:58:35;;;;;;;7.83;7.03;;;7.60;78.60;;;;;;5054716;28;20469;-56
2023/04/27 04:01:02;;;;;;;9.80;6.93;;;7.50;79.00;;;;;;5054251;28;20884;-56
2023/04/27 04:03:29;;;;;;;10.37;7.50;;;7.50;79.30;;;;;;5053596;28;20461;-56
2023/04/27 04:05:56;;;;;;;11.10;7.53;;;7.50;79.50;;;;;;5053878;28;20504;-56
2023/04/27 04:08:22;;;;;;;13.77;7.00;;;7.40;79.60;;;;;;5053407;28;20488;-56
2023/04/27 04:10:49;;;;;;;11.83;7.80;;;7.40;79.70;;;;;;5053844;28;20457;-56
2023/04/27 04:13:16;;;;;;;11.93;8.00;;;7.40;79.90;;;;;;5053580;28;20469;-56
2023/04/27 04:15:44;;;;;;;9.37;7.00;;;7.40;80.00;;;;;;5053609;28;20461;-56
2023/04/27 04:18:11;;;;;;;9.90;7.87;;;7.40;80.10;;;;;;5053507;28;20516;-56
2023/04/27 04:20:37;;;;;;;8.80;7.17;;;7.40;80.00;;;;;;5053186;28;20939;-56
2023/04/27 04:23:04;;;;;;;11.57;8.10;;;7.30;79.90;;;;;;5053629;28;20827;-56
2023/04/27 04:25:31;;;;;;;9.70;7.47;;;7.30;80.10;;;;;;5053576;28;20474;-56
2023/04/27 04:27:58;;;;;;;11.87;8.07;;;7.30;80.30;;;;;;5053382;28;20485;-55
2023/04/27 04:30:25;;;;;;;14.40;8.40;;;7.30;80.50;;;;;;5053405;28;20453;-56
2023/04/27 04:32:54;;;;;;;9.70;6.80;;;7.30;80.60;;;;;;5052827;28;20959;-57
2023/04/27 04:35:20;;;;;;;7.10;6.37;;;7.20;80.50;;;;;;5053118;28;20460;-56
2023/04/27 04:37:47;;;;;;;9.33;7.30;;;7.20;80.70;;;;;;5053292;28;20445;-56
2023/04/27 04:40:14;;;;;;;9.03;6.97;;;7.20;80.80;;;;;;5053063;28;20966;-56
2023/04/27 04:42:41;;;;;;;8.67;6.90;;;7.20;80.80;;;;;;5052912;28;20866;-57
2023/04/27 04:45:09;;;;;;;9.20;6.73;;;7.10;81.00;;;;;;5052891;28;20477;-56
2023/04/27 04:47:36;;;;;;;8.13;5.80;;;7.10;81.30;;;;;;5052792;28;20453;-56
2023/04/27 04:50:04;;;;;;;6.53;5.83;;;7.10;81.50;;;;;;5052890;28;20492;-56
2023/04/27 04:52:31;;;;;;;8.00;7.20;;;7.10;81.60;;;;;;5052793;28;20473;-57
2023/04/27 04:54:58;;;;;;;9.90;5.97;;;7.10;82.00;;;;;;5052899;28;20465;-56
2023/04/27 04:57:24;;;;;;;12.13;6.83;;;7.10;82.30;;;;;;5053123;28;20481;-56
2023/04/27 04:59:51;;;;;;;8.17;5.80;;;7.10;82.50;;;;;;5053036;28;20450;-56
2023/04/27 05:02:18;;;;;;;8.87;6.70;;;7.10;82.60;;;;;;5052959;28;20532;-56
2023/04/27 05:04:45;;;;;;;12.07;7.10;;;7.10;82.90;;;;;;5052762;28;20469;-56
2023/04/27 05:07:13;;;;;;;7.97;7.13;;;7.10;83.20;;;;;;5052604;28;20865;-56
2023/04/27 05:09:40;;;;;;;9.07;6.63;;;7.10;83.60;;;;;;5053125;28;20484;-56
2023/04/27 05:12:07;;;;;;;7.80;5.87;;;7.10;83.80;;;;;;5052844;28;20456;-56
2023/04/27 05:14:34;;;;;;;7.70;6.80;;;7.10;84.30;;;;;;5052859;28;20469;-56
2023/04/27 05:17:01;;;;;;;8.17;7.30;;;7.10;84.40;;;;;;5052821;28;20454;-56
2023/04/27 05:19:29;;;;;;;8.03;7.20;;;7.10;84.70;;;;;;5052928;28;20488;-56
2023/04/27 05:21:57;;;;;;;10.23;7.27;;;7.10;85.10;;;;;;5052891;28;20449;-56
2023/04/27 05:24:25;;;;;;;9.30;7.67;;;7.20;85.60;;;;;;5052396;28;21002;-56
2023/04/27 05:26:52;;;;;;;11.40;7.10;;;7.20;86.20;;;;;;5052815;28;20497;-56
2023/04/27 05:29:18;;;;;;;12.37;8.47;;;7.20;86.40;;;;;;5052720;28;20481;-56
2023/04/27 05:31:45;;;;;;;7.50;6.80;;;7.30;86.70;;;;;;5052741;28;20457;-56
2023/04/27 05:34:12;;;;;;;10.77;6.87;;;7.30;87.20;;;;;;5052629;28;20496;-56
2023/04/27 05:36:39;;;;;;;9.57;6.83;;;7.30;87.80;;;;;;5052653;28;20449;-56
2023/04/27 05:39:06;;;;;;;11.07;8.50;;;7.30;88.40;;;;;;5052836;28;20507;-56
2023/04/27 05:41:34;;;;;;;11.13;7.47;;;7.40;88.90;;;;;;5052682;28;20544;-56
2023/04/27 05:44:00;;;;;;;10.13;7.30;;;7.50;89.40;;;;;;5052557;28;20477;-56
2023/04/27 05:46:27;;;;;;;11.03;7.37;;;7.50;89.50;;;;;;5054564;28;20457;-56
2023/04/27 05:48:54;;;;;;;8.93;7.33;;;7.60;89.80;;;;;;5056106;28;20476;-56
2023/04/27 05:51:21;;;;;;;12.00;9.30;;;7.60;90.00;;;;;;5056213;28;20484;-56
2023/04/27 05:53:48;;;;;;;10.10;8.07;;;7.60;90.20;;;;;;5055908;28;20473;-56
2023/04/27 05:56:15;;;;;;;11.50;7.10;;;7.70;90.60;;;;;;5056053;28;20452;-56
2023/04/27 05:58:43;;;;;;;10.37;8.30;;;7.80;90.60;;;;;;5055914;28;20456;-56
2023/04/27 06:01:09;;;;;;;9.90;8.60;;;7.90;90.60;;;;;;5055591;28;20441;-56
2023/04/27 06:03:36;;;;;;;11.50;9.27;;;7.90;90.70;;;;;;5055837;28;20866;-56
2023/04/27 06:06:03;;;;;;;9.63;8.53;;;8.00;90.80;;;;;;5055611;28;20970;-56
2023/04/27 06:08:30;;;;;;;10.70;8.30;;;8.10;90.70;;;;;;5055346;28;20821;-56
2023/04/27 06:10:57;;;;;;;12.10;9.43;;;8.20;90.70;;;;;;5055779;28;20544;-57
2023/04/27 06:13:24;;;;;;;13.80;8.03;;;8.30;90.80;;;;;;5055619;28;20488;-56
2023/04/27 06:15:52;;;;;;;13.00;9.97;;;8.40;90.80;;;;;;5055625;28;20445;-57
2023/04/27 06:18:18;;;;;;;10.70;7.80;;;8.50;90.80;;;;;;5055546;28;20453;-56
2023/04/27 06:20:45;;;;;;;13.97;9.03;;;8.60;90.70;;;;;;5056340;28;20449;-56
2023/04/27 06:23:12;;;;;;;9.57;7.73;;;8.70;90.70;;;;;;5055435;28;20523;-56
2023/04/27 06:25:39;;;;;;;14.47;7.97;;;8.80;90.70;;;;;;5055434;28;20488;-57
2023/04/27 06:28:06;;;;;;;12.70;8.77;;;8.90;90.60;;;;;;5055401;28;20460;-56
2023/04/27 06:30:33;;;;;;;13.20;9.20;;;9.00;90.50;;;;;;5055008;28;20477;-57
2023/04/27 06:33:01;;;;;;;13.10;8.70;;;9.20;90.10;;;;;;5056083;28;20449;-57
2023/04/27 06:35:28;;;;;;;17.47;9.57;;;9.30;90.10;;;;;;5055258;28;20450;-57
2023/04/27 06:37:57;;;;;;;13.60;9.03;;;9.40;90.00;;;;;;5054885;28;20827;-56
2023/04/27 06:40:24;;;;;;;11.23;8.53;;;9.50;89.70;;;;;;5055203;28;20453;-56
2023/04/27 06:42:51;;;;;;;13.40;8.67;;;9.70;88.40;;;;;;5054972;28;20454;-57
2023/04/27 06:45:18;;;;;;;12.33;9.07;;;9.80;88.10;;;;;;5055124;28;20449;-57
2023/04/27 06:47:45;;;;;;;10.77;9.60;;;10.00;86.40;;;;;;5055103;28;20446;-57
2023/04/27 06:50:15;;;;;;;12.73;9.70;;;10.10;85.80;;;;;;5055003;28;20478;-58
2023/04/27 06:52:41;;;;;;;14.37;8.67;;;10.20;85.30;;;;;;5055352;28;20481;-57
2023/04/27 06:55:09;;;;;;;9.77;8.00;;;10.40;85.00;;;;;;5055603;28;20846;-57
2023/04/27 06:57:35;;;;;;;11.17;7.93;;;10.60;84.50;;;;;;5055020;28;20804;-58
2023/04/27 07:00:03;;;;;;;12.87;8.67;;;10.70;83.10;;;;;;5055441;28;20504;-56
2023/04/27 07:02:30;;;;;;;11.10;8.07;;;10.80;81.70;;;;;;5055012;28;20454;-56
2023/04/27 07:04:57;;;;;;;11.93;8.47;;;11.00;80.60;;;;;;5054764;28;20493;-57
2023/04/27 07:07:25;;;;;;;15.23;8.37;;;11.20;79.10;;;;;;5054832;28;20452;-56
2023/04/27 07:09:51;;;;;;;10.23;8.70;;;11.40;78.10;;;;;;5054661;28;20461;-56
2023/04/27 07:12:18;;;;;;;14.83;8.70;;;11.50;76.50;;;;;;5054281;28;20856;-58
2023/04/27 07:14:45;;;;;;;11.80;7.50;;;11.70;75.60;;;;;;5054511;28;20469;-57
2023/04/27 07:17:12;;;;;;;10.10;8.07;;;11.90;74.60;;;;;;5054246;28;20992;-56
2023/04/27 07:19:38;;;;;;;14.97;8.30;;;12.10;73.60;;;;;;5054444;28;20469;-56
2023/04/27 07:22:05;;;;;;;10.07;7.77;;;12.20;73.30;;;;;;5054434;28;20468;-57
2023/04/27 07:24:33;;;;;;;11.20;8.10;;;12.30;72.00;;;;;;5054273;28;20473;-57
2023/04/27 07:27:01;;;;;;;9.60;7.70;;;12.50;71.10;;;;;;5054317;28;20453;-56
2023/04/27 07:29:29;;;;;;;9.80;8.00;;;12.60;69.90;;;;;;5054133;28;20481;-57
2023/04/27 07:31:55;;;;;;;12.00;8.63;;;12.80;68.70;;;;;;5054224;28;20531;-56
2023/04/27 07:34:22;;;;;;;12.50;8.37;;;12.90;67.80;;;;;;5053859;28;21036;-56
2023/04/27 07:36:49;;;;;;;13.63;8.53;;;13.00;67.10;;;;;;5054154;28;20454;-57
2023/04/27 07:39:16;;;;;;;10.97;7.83;;;13.20;66.40;;;;;;5054581;28;20434;-57
2023/04/27 07:41:44;;;;;;;9.83;7.40;;;13.40;65.80;;;;;;5054085;28;20859;-56
2023/04/27 07:44:11;;;;;;;9.40;7.53;;;13.60;64.70;;;;;;5053932;28;20885;-57
2023/04/27 07:46:37;;;;;;;10.97;8.20;;;13.70;63.50;;;;;;5054022;28;20523;-57
2023/04/27 07:49:04;;;;;;;10.47;7.60;;;13.90;63.00;;;;;;5053822;28;20568;-57
2023/04/27 07:51:33;;;;;;;9.10;7.90;;;14.10;61.60;;;;;;5053883;28;20446;-57
2023/04/27 07:54:01;;;;;;;10.17;7.60;;;14.30;60.60;;;;;;5053706;28;20812;-57
2023/04/27 07:56:27;;;;;;;11.33;7.57;;;14.50;59.80;;;;;;5053779;28;20512;-57
2023/04/27 07:58:55;;;;;;;7.90;7.10;;;14.60;59.30;;;;;;5054536;28;20454;-56
2023/04/27 08:01:22;;;;;;;9.30;7.77;;;14.80;58.80;;;;;;5053665;28;20476;-56
2023/04/27 08:03:49;;;;;;;11.73;7.60;;;15.00;58.20;;;;;;5053623;28;20548;-56
2023/04/27 08:06:16;;;;;;;11.20;8.40;;;15.30;57.60;;;;;;5053599;28;20474;-57
2023/04/27 08:08:42;;;;;;;11.67;7.20;;;15.50;57.20;;;;;;5052536;28;20457;-56
2023/04/27 08:11:09;;;;;;;6.73;6.13;;;15.50;55.80;;;;;;5053493;28;20485;-56
2023/04/27 08:13:36;;;;;;;8.17;6.40;;;15.70;55.30;;;;;;5053442;28;20477;-57
2023/04/27 08:16:05;;;;;;;11.87;8.53;;;16.00;55.20;;;;;;5053179;28;20872;-57
2023/04/27 08:18:33;;;;;;;12.73;7.30;;;16.10;54.80;;;;;;5053455;28;20446;-57
2023/04/27 08:21:00;;;;;;;10.20;8.10;;;16.40;54.10;;;;;;5053100;28;20928;-56
2023/04/27 08:23:27;;;;;;;11.33;8.13;;;16.60;53.60;;;;;;5053314;28;20552;-57
2023/04/27 08:25:54;;;;;;;7.90;7.10;;;16.80;52.00;;;;;;5053294;28;20503;-57
2023/04/27 08:28:22;;;;;;;10.13;7.13;;;16.90;51.10;;;;;;5053343;28;20456;-57
2023/04/27 08:30:48;;;;;;;9.20;6.53;;;17.00;51.30;;;;;;5053193;28;20513;-57
2023/04/27 08:33:16;;;;;;;9.50;7.67;;;17.20;51.20;;;;;;5053220;28;20466;-56
2023/04/27 08:35:43;;;;;;;9.23;7.40;;;17.30;50.30;;;;;;5053229;28;20499;-57
2023/04/27 08:38:10;;;;;;;10.53;7.50;;;17.30;49.50;;;;;;5052937;28;20457;-57
2023/04/27 08:40:41;;;;;;;8.60;6.83;;;17.40;49.40;;;;;;5053216;28;20450;-57
2023/04/27 08:43:08;;;;;;;11.07;6.60;;;17.50;49.40;;;;;;5052908;28;20953;-57
2023/04/27 08:45:35;;;;;;;7.47;6.73;;;17.60;48.40;;;;;;5053190;28;20454;-57
2023/04/27 08:48:01;;;;;;;7.90;6.00;;;17.80;46.30;;;;;;5053136;28;20449;-57
2023/04/27 08:50:30;;;;;;;9.83;6.13;;;17.90;47.70;;;;;;5052744;28;20834;-57
2023/04/27 08:52:57;;;;;;;14.60;6.93;;;18.10;47.10;;;;;;5053010;28;20450;-57
2023/04/27 08:55:23;;;;;;;8.23;6.57;;;18.30;46.40;;;;;;5053041;28;20457;-57
2023/04/27 08:57:57;;;;;;;8.50;7.63;;;18.50;46.20;;;;;;5053067;28;20499;-57
2023/04/27 09:00:27;;;;;;;10.03;7.30;;;18.60;45.70;;;;;;5052729;28;20441;-57
2023/04/27 09:02:54;;;;;;;8.93;7.40;;;18.80;45.80;;;;;;5052920;28;20456;-57
2023/04/27 09:05:22;;;;;;;9.27;6.40;;;18.90;44.50;;;;;;5052678;28;20460;-57
2023/04/27 09:07:58;;;;;;;7.73;6.80;;;19.20;43.60;;;;;;5052468;28;20966;-57
2023/04/27 09:10:25;;;;;;;7.73;5.70;;;19.40;43.10;;;;;;5052935;28;20484;-57
2023/04/27 09:12:56;;;;;;;8.37;6.73;;;19.60;42.40;;;;;;5052568;28;20946;-58
2023/04/27 09:15:22;;;;;;;8.40;5.93;;;19.80;41.10;;;;;;5052876;28;20477;-57
2023/04/27 09:17:54;;;;;;;6.63;5.43;;;19.90;40.20;;;;;;5052889;28;20476;-57
2023/04/27 09:20:21;;;;;;;9.53;6.50;;;20.00;39.40;;;;;;5054543;28;20426;-57
2023/04/27 09:22:51;;;;;;;7.23;5.50;;;20.20;39.60;;;;;;5056718;28;20449;-57
2023/04/27 09:25:30;;;;;;;5.87;5.10;;;20.40;39.80;;;;;;5056904;28;20445;-57
2023/04/27 09:27:58;;;;;;;7.13;6.33;;;20.70;39.40;;;;;;5056682;28;20441;-57
2023/04/27 09:30:25;;;;;;;7.33;5.47;;;21.00;38.90;;;;;;5056534;28;20485;-56
2023/04/27 09:32:53;;;;;;;5.63;5.13;;;21.30;38.00;;;;;;5056117;28;20943;-57
2023/04/27 09:35:25;;;;;;;7.70;6.87;;;21.60;37.80;;;;;;5056183;28;20457;-57
2023/04/27 09:37:52;;;;;;;6.30;5.70;;;21.80;37.00;;;;;;5056081;28;20931;-57
2023/04/27 09:40:22;;;;;;;8.80;6.10;;;22.10;34.70;;;;;;5056411;28;20464;-56
2023/04/27 09:42:51;;;;;;;5.93;5.33;;;22.30;34.70;;;;;;5056204;28;20544;-57
2023/04/27 09:45:18;;;;;;;7.33;6.47;;;22.50;34.90;;;;;;5057009;28;20450;-56
2023/04/27 09:47:45;;;;;;;8.47;6.20;;;22.70;34.90;;;;;;5057152;28;20488;-57
2023/04/27 09:50:13;;;;;;;6.80;6.20;;;23.00;34.20;;;;;;5056691;28;20508;-57
2023/04/27 09:52:40;;;;;;;6.70;5.40;;;23.20;33.20;;;;;;5056694;28;20449;-57
2023/04/27 09:55:10;;;;;;;6.40;5.50;;;23.30;31.80;;;;;;5056371;28;20461;-57
2023/04/27 09:57:43;;;;;;;7.10;6.40;;;23.40;32.10;;;;;;5056194;28;21031;-56
2023/04/27 10:00:20;;;;;;;6.40;5.10;;;23.60;31.30;;;;;;5056267;28;20445;-57
2023/04/27 10:02:59;;;;;;;6.47;5.87;;;23.70;30.50;;;;;;5056142;28;20448;-57
2023/04/27 10:05:41;;;;;;;8.77;6.00;;;23.90;31.60;;;;;;5056165;28;20487;-57
2023/04/27 10:08:10;;;;;;;12.83;6.27;;;24.10;31.90;;;;;;5055876;28;20453;-57
2023/04/27 10:10:47;;;;;;;13.27;6.83;;;24.30;31.90;;;;;;5055797;28;20485;-57
2023/04/27 10:13:21;;;;;;;7.83;6.13;;;24.50;30.00;;;;;;5055659;28;20979;-57
2023/04/27 10:15:51;;;;;;;6.30;5.70;;;24.70;30.00;;;;;;5055972;28;20433;-57
2023/04/27 10:18:29;;;;;;;7.30;5.50;;;24.90;30.00;;;;;;5055921;28;20481;-57
2023/04/27 10:20:56;;;;;;;6.50;6.00;;;25.20;29.40;;;;;;5055477;28;20922;-57
2023/04/27 10:23:24;;;;;;;6.70;5.93;;;25.40;29.10;;;;;;5055595;28;21044;-58
2023/04/27 10:25:51;;;;;;;5.73;5.20;;;25.60;29.00;;;;;;5056508;28;20461;-57
2023/04/27 10:28:19;;;;;;;8.00;7.00;;;25.60;29.00;;;;;;5055718;28;20500;-57
2023/04/27 10:30:48;;;;;;;8.40;6.20;;;25.70;28.30;;;;;;5055104;28;20487;-57
2023/04/27 10:33:17;;;;;;;5.87;5.10;;;25.90;27.20;;;;;;5055034;28;20477;-57
2023/04/27 10:35:45;;;;;;;6.17;5.67;;;26.20;27.60;;;;;;5055673;28;20473;-57
2023/04/27 10:38:16;;;;;;;6.03;5.43;;;26.60;27.00;;;;;;5055267;28;20450;-57
2023/04/27 10:40:44;;;;;;;6.63;5.40;;;27.00;25.90;;;;;;5055281;28;20513;-57
2023/04/27 10:43:12;;;;;;;7.67;5.60;;;27.40;26.30;;;;;;5055153;28;20465;-57
2023/04/27 10:45:40;;;;;;;5.90;5.30;;;27.80;26.00;;;;;;5054789;28;20950;-57
2023/04/27 10:48:08;;;;;;;5.83;5.20;;;28.30;25.20;;;;;;5055099;28;20453;-57
2023/04/27 10:50:35;;;;;;;7.90;5.30;;;28.60;23.40;;;;;;5055024;28;20595;-57
2023/04/27 10:53:05;;;;;;;5.93;5.30;;;28.90;21.90;;;;;;5054996;28;20445;-57
2023/04/27 10:55:33;;;;;;;5.67;4.93;;;29.00;21.20;;;;;;5054865;28;20544;-57
2023/04/27 10:58:00;;;;;;;7.07;6.47;;;29.20;21.80;;;;;;5054581;28;20455;-57
2023/04/27 11:00:28;;;;;;;5.70;4.53;;;29.50;22.30;;;;;;5055363;28;20843;-57
2023/04/27 11:02:56;;;;;;;6.60;6.00;;;29.60;22.50;;;;;;5054749;28;20463;-57
2023/04/27 11:05:29;;;;;;;6.03;5.20;;;29.70;22.30;;;;;;5055448;28;20456;-57
2023/04/27 11:08:05;;;;;;;6.03;5.37;;;29.90;23.10;;;;;;5053881;28;20954;-58
2023/04/27 11:10:32;;;;;;;8.57;7.30;;;30.20;22.50;;;;;;5054511;28;20488;-57
2023/04/27 11:12:59;;;;;;;7.40;6.70;;;30.60;20.90;;;;;;5054621;28;20468;-57
2023/04/27 11:15:26;;;;;;;7.03;6.43;;;30.70;20.50;;;;;;5054331;28;20923;-57
2023/04/27 11:18:04;;;;;;;7.93;5.93;;;30.80;19.70;;;;;;5054710;28;20455;-57
2023/04/27 11:20:32;;;;;;;7.20;6.50;;;30.80;20.70;;;;;;5054457;28;20873;-57
2023/04/27 11:22:59;;;;;;;6.03;5.43;;;30.80;20.00;;;;;;5054405;28;20448;-57
2023/04/27 11:25:28;;;;;;;6.20;5.70;;;30.80;21.80;;;;;;5054479;28;20447;-57
2023/04/27 11:27:55;;;;;;;6.13;5.67;;;30.80;22.60;;;;;;5054081;28;21008;-57
2023/04/27 11:30:23;;;;;;;6.70;6.10;;;30.80;21.30;;;;;;5068034;28;20483;-57
2023/04/27 11:32:50;;;;;;;6.47;5.97;;;30.90;21.70;;;;;;5074221;28;20456;-57
2023/04/27 11:35:18;;;;;;;10.00;6.23;;;30.90;21.40;;;;;;5074188;28;20448;-57
2023/04/27 11:37:56;;;;;;;7.10;6.23;;;30.90;21.10;;;;;;5074131;28;20502;-57
2023/04/27 11:40:23;;;;;;;6.63;6.13;;;31.00;21.20;;;;;;5073791;28;20961;-57
2023/04/27 11:42:57;;;;;;;6.23;5.63;;;31.00;21.00;;;;;;5073689;28;20509;-57
2023/04/27 11:45:27;;;;;;;7.07;6.40;;;31.10;20.90;;;;;;5074047;28;20460;-57
2023/04/27 11:47:54;;;;;;;7.00;6.40;;;31.30;20.70;;;;;;5073466;28;20450;-57
2023/04/27 11:50:24;;;;;;;8.40;7.20;;;31.50;21.00;;;;;;5073758;28;20859;-57
2023/04/27 11:52:52;;;;;;;8.00;7.20;;;31.70;21.00;;;;;;5074582;28;20451;-58
2023/04/27 11:55:21;;;;;;;7.70;6.90;;;32.00;20.70;;;;;;5073782;28;20923;-57
2023/04/27 11:57:47;;;;;;;8.87;7.23;;;32.30;20.30;;;;;;5073702;28;20444;-57
2023/04/27 12:00:15;;;;;;;8.30;7.60;;;32.60;20.30;;;;;;5073607;28;20455;-57
2023/04/27 12:02:42;;;;;;;8.77;7.97;;;32.90;19.80;;;;;;5073444;28;20448;-57
2023/04/27 12:05:10;;;;;;;9.40;8.50;;;33.20;19.30;;;;;;5073600;28;20464;-57
2023/04/27 12:07:37;;;;;;;10.33;9.17;;;33.30;18.00;;;;;;5073321;28;20459;-57
2023/04/27 12:10:06;;;;;;;9.73;8.47;;;33.30;18.10;;;;;;5073546;28;20451;-57
2023/04/27 12:12:33;;;;;;;9.17;7.60;;;33.40;18.00;;;;;;5073413;28;20860;-57
2023/04/27 12:15:01;;;;;;;10.67;8.43;;;33.70;18.50;;;;;;5073340;28;20471;-57
2023/04/27 12:17:28;;;;;;;9.33;8.43;;;34.30;18.00;;;;;;5073423;28;20448;-57
2023/04/27 12:19:55;;;;;;;8.90;8.10;;;34.70;16.80;;;;;;5073125;28;20578;-57
2023/04/27 12:22:22;;;;;;;9.70;7.70;;;35.10;17.30;;;;;;5073445;28;20251;-57
2023/04/27 12:24:48;;;;;;;9.67;8.87;;;35.70;16.90;;;;;;5073271;28;20253;-57
2023/04/27 12:27:16;;;;;;;8.43;7.72;;;36.10;15.20;;;;;;5073546;28;20212;-58
2023/04/27 12:29:43;;;;;;;8.45;7.45;;;36.30;15.70;;;;;;5074217;28;20209;-58
2023/04/27 12:32:10;;;;;;;7.32;6.72;;;36.50;16.60;;;;;;5074575;28;20226;-57
2023/04/27 12:34:38;;;;;;;8.52;7.63;;;36.70;15.70;;;;;;5074254;28;20226;-57
2023/04/27 12:37:05;;;;;;;10.23;9.32;;;36.80;16.00;;;;;;5073799;28;20258;-57
2023/04/27 12:39:32;;;;;;;9.75;8.77;;;36.80;15.50;;;;;;5073204;28;20667;-57
2023/04/27 12:41:58;;;;;;;9.93;9.00;;;36.90;14.20;;;;;;5073476;28;20615;-57
2023/04/27 12:44:26;;;;;;;9.73;8.88;;;37.20;14.40;;;;;;5073598;28;20225;-57
2023/04/27 12:46:53;;;;;;;8.75;8.02;;;37.30;14.30;;;;;;5072931;28;20710;-57
2023/04/27 12:49:20;;;;;;;10.27;9.23;;;37.40;14.80;;;;;;5073388;28;20205;-57